Time;durP1;ratioP1;P1;durP2;ratioP2;P2;SDS_P1;SDS_P2;PMS_P1;PMS_P2;Temp;Humidity;BMP_temperature;BMP_pressure;BME280_temperature;BME280_humidity;BME280_pressure;Samples;Min_cycle;Max_cycle;Signal;HPM_P1;HPM_P2
2022/09/01 00:00:48;;;;;;;;;;;13.50;99.90;;;;;;5153133;27;20047;-77
2022/09/01 00:03:16;;;;;;;1999.90;999.90;;;13.40;99.90;;;;;;5154657;27;19923;-75
2022/09/01 00:05:43;;;;;;;1999.90;999.90;;;13.40;99.90;;;;;;5154920;27;20183;-75
2022/09/01 00:08:09;;;;;;;1999.90;999.90;;;13.30;99.90;;;;;;5135830;27;20043;-81
2022/09/01 00:10:34;;;;;;;1999.90;999.90;;;13.30;99.90;;;;;;5154636;27;20051;-87
2022/09/01 00:13:01;;;;;;;1999.90;999.90;;;13.30;99.90;;;;;;5154650;27;20046;-75
2022/09/01 00:15:27;;;;;;;1999.90;999.90;;;13.30;99.90;;;;;;5154574;27;20054;-75
2022/09/01 00:17:52;;;;;;;1999.90;999.90;;;13.90;99.90;;;;;;5154070;27;20035;-75
2022/09/01 00:20:18;;;;;;;1999.90;999.90;;;13.30;99.90;;;;;;5135750;27;20127;-75
2022/09/01 00:22:44;;;;;;;1999.90;999.90;;;13.30;99.90;;;;;;5135821;27;20086;-75
2022/09/01 00:25:10;;;;;;;1999.90;999.90;;;13.80;99.90;;;;;;5153950;27;20042;-75
2022/09/01 00:27:35;;;;;;;1999.90;999.90;;;13.30;99.90;;;;;;5153734;27;20050;-75
2022/09/01 00:30:01;;;;;;;1999.90;999.90;;;13.20;99.90;;;;;;5153601;27;20066;-75
2022/09/01 00:32:27;;;;;;;1999.90;999.90;;;13.30;99.90;;;;;;5134806;27;20055;-75
2022/09/01 00:34:53;;;;;;;1999.90;999.90;;;13.20;99.90;;;;;;5153887;27;20524;-75
2022/09/01 00:37:19;;;;;;;1999.90;999.90;;;13.20;99.90;;;;;;5152116;27;20117;-80
2022/09/01 00:39:44;;;;;;;1999.90;999.90;;;13.20;99.90;;;;;;5118744;27;20478;-79
2022/09/01 00:42:10;;;;;;;1999.90;999.90;;;13.20;99.90;;;;;;5132587;27;20085;-75
2022/09/01 00:44:37;;;;;;;1999.90;999.90;;;13.40;99.90;;;;;;5135786;27;20042;-75
2022/09/01 00:47:05;;;;;;;1999.90;999.90;;;13.20;99.90;;;;;;5153540;27;20038;-75
2022/09/01 00:49:41;;;;;;;1999.90;999.90;;;13.10;99.90;;;;;;5153840;27;20046;-75
2022/09/01 00:52:15;;;;;;;1999.90;999.90;;;13.10;99.90;;;;;;5153587;27;20049;-75
2022/09/01 00:54:44;;;;;;;1999.90;999.90;;;13.10;99.90;;;;;;5154061;27;20087;-86
2022/09/01 00:57:11;;;;;;;1999.90;999.90;;;13.10;99.90;;;;;;5153601;27;20121;-78
2022/09/01 00:59:58;;;;;;;1999.90;999.90;;;13.10;99.90;;;;;;5135826;27;20077;-83
2022/09/01 01:02:24;;;;;;;1999.90;999.90;;;13.10;99.90;;;;;;5135487;27;20057;-76
2022/09/01 01:04:51;;;;;;;1999.90;999.90;;;13.10;99.90;;;;;;5153636;27;20390;-75
2022/09/01 01:07:21;;;;;;;1999.90;999.90;;;13.10;99.90;;;;;;5153420;27;20042;-75
2022/09/01 01:09:48;;;;;;;1999.90;999.90;;;13.10;99.90;;;;;;5135336;27;20425;-79
2022/09/01 01:12:17;;;;;;;1999.90;999.90;;;13.10;99.90;;;;;;5153467;27;20296;-75
2022/09/01 01:14:49;;;;;;;1999.90;999.90;;;13.00;99.90;;;;;;5153463;27;20051;-80
2022/09/01 01:17:16;;;;;;;1999.90;999.90;;;13.00;99.90;;;;;;5153631;27;20214;-75
2022/09/01 01:23:07;;;;;;;1999.90;999.90;;;13.00;99.90;;;;;;5153789;27;20053;-75
2022/09/01 01:25:43;;;;;;;1999.90;999.90;;;12.90;99.90;;;;;;5153131;27;20080;-76
2022/09/01 01:28:17;;;;;;;1999.90;999.90;;;12.90;99.90;;;;;;5152614;27;20043;-75
2022/09/01 01:30:55;;;;;;;1999.90;999.90;;;12.90;99.90;;;;;;5153392;27;20090;-75
2022/09/01 01:33:26;;;;;;;1999.90;999.90;;;12.90;99.90;;;;;;5134803;27;20049;-87
2022/09/01 01:35:56;;;;;;;1999.90;999.90;;;12.80;99.90;;;;;;5152940;27;20162;-76
2022/09/01 01:38:23;;;;;;;1999.90;999.90;;;12.70;99.90;;;;;;5153843;27;20095;-75
2022/09/01 01:40:50;;;;;;;1999.90;999.90;;;12.80;99.90;;;;;;5157210;27;20431;-75
2022/09/01 01:43:20;;;;;;;1999.90;999.90;;;12.80;99.90;;;;;;5156743;27;20121;-75
2022/09/01 01:45:50;;;;;;;1999.90;999.90;;;12.70;99.90;;;;;;5157156;27;20435;-78
2022/09/01 01:48:21;;;;;;;1999.90;999.90;;;12.70;99.90;;;;;;5155171;27;20031;-75
2022/09/01 01:50:49;;;;;;;1999.90;999.90;;;12.70;99.90;;;;;;5157244;27;20521;-74
2022/09/01 01:53:18;;;;;;;1999.90;999.90;;;12.70;99.90;;;;;;5156440;27;20039;-75
2022/09/01 01:55:47;;;;;;;1999.90;999.90;;;13.20;99.90;;;;;;5157449;27;20050;-76
2022/09/01 01:58:14;;;;;;;1999.90;999.90;;;12.70;99.90;;;;;;5156646;27;20513;-75
2022/09/01 02:00:43;;;;;;;1999.90;999.90;;;12.70;99.90;;;;;;5138869;27;20058;-75
2022/09/01 02:03:11;;;;;;;1999.90;999.90;;;12.60;99.90;;;;;;5138704;27;20079;-75
2022/09/01 02:05:38;;;;;;;1999.90;999.90;;;12.60;99.90;;;;;;5139064;27;20046;-75
2022/09/01 02:08:08;;;;;;;1999.90;999.90;;;12.50;99.90;;;;;;5156635;27;20081;-75
2022/09/01 02:10:40;;;;;;;1999.90;999.90;;;12.50;99.90;;;;;;5156791;27;20043;-75
2022/09/01 02:13:10;;;;;;;1999.90;999.90;;;12.50;99.90;;;;;;5156831;27;20043;-75
2022/09/01 02:15:43;;;;;;;1999.90;999.90;;;12.50;99.90;;;;;;5156787;27;20064;-75
2022/09/01 02:18:34;;;;;;;1999.90;999.90;;;12.50;99.90;;;;;;5156089;27;20039;-75
2022/09/01 02:21:01;;;;;;;1999.90;999.90;;;12.50;99.90;;;;;;5156652;27;20395;-75
2022/09/01 02:23:27;;;;;;;1999.90;999.90;;;12.40;99.90;;;;;;5157185;27;20056;-76
2022/09/01 02:25:56;;;;;;;1999.90;999.90;;;12.40;99.90;;;;;;5156700;27;20035;-75
2022/09/01 02:28:22;;;;;;;1999.90;999.90;;;12.40;99.90;;;;;;5137491;27;20042;-75
2022/09/01 02:30:53;;;;;;;1999.90;999.90;;;12.60;99.90;;;;;;5137912;27;20054;-76
2022/09/01 02:33:21;;;;;;;1999.90;999.90;;;12.40;99.90;;;;;;5156647;27;20483;-79
2022/09/01 02:35:48;;;;;;;;;;;12.40;99.90;;;;;;5157219;27;20047;-75
2022/09/01 02:38:16;;;;;;;1999.90;999.90;;;12.30;99.90;;;;;;5137958;27;20412;-77
2022/09/01 02:40:44;;;;;;;1999.90;999.90;;;12.40;99.90;;;;;;5137645;27;20043;-75
2022/09/01 02:43:10;;;;;;;1999.90;999.90;;;12.40;99.90;;;;;;5138024;27;20047;-75
2022/09/01 02:45:37;;;;;;;1999.90;999.90;;;12.30;99.90;;;;;;5156619;27;20043;-75
2022/09/01 02:48:09;;;;;;;1999.90;999.90;;;12.30;99.90;;;;;;5155015;27;20038;-75
2022/09/01 02:50:40;;;;;;;1999.90;999.90;;;11.50;99.90;;;;;;5155393;27;20565;-75
2022/09/01 02:53:08;;;;;;;1999.90;999.90;;;12.40;99.90;;;;;;5155965;27;20085;-82
2022/09/01 02:55:43;;;;;;;1999.90;999.90;;;12.40;99.90;;;;;;5156452;27;20104;-75
2022/09/01 02:58:15;;;;;;;1999.90;999.90;;;12.40;99.90;;;;;;5155866;27;20066;-75
2022/09/01 03:00:44;;;;;;;1999.90;999.90;;;12.50;99.90;;;;;;5155643;27;20484;-75
2022/09/01 03:03:11;;;;;;;1999.90;999.90;;;12.40;99.90;;;;;;5156092;27;20045;-75
2022/09/01 03:05:38;;;;;;;1999.90;999.90;;;12.40;99.90;;;;;;5156018;27;20110;-82
2022/09/01 03:08:09;;;;;;;1999.90;999.90;;;12.40;99.90;;;;;;5156097;27;20175;-75
2022/09/01 03:10:40;;;;;;;1999.90;999.90;;;12.40;99.90;;;;;;5155250;27;20085;-75
2022/09/01 03:13:13;;;;;;;1999.90;999.90;;;12.40;99.90;;;;;;5155660;27;20050;-91
2022/09/01 03:15:39;;;;;;;1999.90;999.90;;;12.50;99.90;;;;;;5155670;27;20082;-76
2022/09/01 03:18:07;;;;;;;1999.90;999.90;;;12.50;99.90;;;;;;5137271;27;20046;-75
2022/09/01 03:20:34;;;;;;;1999.90;999.90;;;12.60;99.90;;;;;;5120781;27;20391;-75
2022/09/01 03:23:03;;;;;;;1999.90;999.90;;;12.60;99.90;;;;;;5155160;27;20054;-75
2022/09/01 03:25:30;;;;;;;1999.90;999.90;;;12.60;99.90;;;;;;5137278;27;20050;-79
2022/09/01 03:27:58;;;;;;;1999.90;999.90;;;13.50;99.90;;;;;;5155073;27;20498;-75
2022/09/01 03:30:25;;;;;;;1999.90;999.90;;;12.60;99.90;;;;;;5155715;27;20307;-75
2022/09/01 03:32:51;;;;;;;1999.90;999.90;;;12.70;99.90;;;;;;5154665;27;20046;-76
2022/09/01 03:35:17;;;;;;;1999.90;999.90;;;12.60;99.90;;;;;;5136841;27;20096;-75
2022/09/01 03:37:43;;;;;;;1999.90;999.90;;;12.60;99.90;;;;;;5136963;27;20411;-75
2022/09/01 03:40:11;;;;;;;1999.90;999.90;;;12.60;99.90;;;;;;5155498;27;20077;-76
2022/09/01 03:42:37;;;;;;;1999.90;999.90;;;12.50;99.90;;;;;;5137222;27;20058;-78
2022/09/01 03:45:08;;;;;;;1999.90;999.90;;;12.50;99.90;;;;;;5155440;27;20522;-83
2022/09/01 03:47:39;;;;;;;1999.90;999.90;;;12.40;99.90;;;;;;5155391;27;20103;-75
2022/09/01 03:50:19;;;;;;;1999.90;999.90;;;12.40;99.90;;;;;;5137374;27;20046;-75
2022/09/01 03:52:51;;;;;;;1999.90;999.90;;;12.40;99.90;;;;;;5137461;27;20043;-75
2022/09/01 03:55:22;;;;;;;1999.90;999.90;;;12.30;99.90;;;;;;5136948;27;20085;-77
2022/09/01 03:57:57;;;;;;;1999.90;999.90;;;12.30;99.90;;;;;;5155785;27;20095;-76
2022/09/01 04:00:28;;;;;;;1999.90;999.90;;;12.20;99.90;;;;;;5155292;27;20162;-76
2022/09/01 04:02:57;;;;;;;1999.90;999.90;;;12.40;99.90;;;;;;5154734;27;20047;-76
2022/09/01 04:05:27;;;;;;;1999.90;999.90;;;12.20;99.90;;;;;;5154575;27;20562;-76
2022/09/01 04:07:55;;;;;;;1999.90;999.90;;;12.30;99.90;;;;;;5136764;27;20403;-78
2022/09/01 04:10:22;;;;;;;1999.90;999.90;;;12.20;99.90;;;;;;5154451;27;20375;-76
2022/09/01 04:12:48;;;;;;;1999.90;999.90;;;12.10;99.90;;;;;;5154654;27;20047;-75
2022/09/01 04:15:16;;;;;;;1999.90;999.90;;;12.30;99.90;;;;;;5153919;27;20516;-75
2022/09/01 04:20:26;;;;;;;1999.90;999.90;;;11.90;99.90;;;;;;5136824;27;20293;-75
2022/09/01 04:22:52;;;;;;;1999.90;999.90;;;12.00;99.90;;;;;;5137141;27;20042;-75
2022/09/01 04:25:25;;;;;;;1999.90;999.90;;;12.00;99.90;;;;;;5136608;27;20168;-75
2022/09/01 04:27:55;;;;;;;1999.90;999.90;;;12.10;99.90;;;;;;5136638;27;20054;-76
2022/09/01 04:31:04;;;;;;;1999.90;999.90;;;12.00;99.90;;;;;;5154348;27;20105;-75
2022/09/01 04:33:35;;;;;;;1999.90;999.90;;;12.00;99.90;;;;;;5153853;27;20047;-79
2022/09/01 04:36:02;;;;;;;1999.90;999.90;;;11.90;99.90;;;;;;5153329;27;20529;-76
2022/09/01 04:38:29;;;;;;;1999.90;999.90;;;11.90;99.90;;;;;;5154086;27;20039;-76
2022/09/01 04:40:56;;;;;;;1999.90;999.90;;;11.90;99.90;;;;;;5154504;27;20051;-76
2022/09/01 04:43:25;;;;;;;1999.90;999.90;;;11.90;99.90;;;;;;5154144;27;20049;-78
2022/09/01 04:45:52;;;;;;;1999.90;999.90;;;12.00;99.90;;;;;;5153455;27;20118;-76
2022/09/01 04:48:21;;;;;;;1999.90;999.90;;;12.10;99.90;;;;;;5152719;27;20043;-75
2022/09/01 04:50:48;;;;;;;1999.90;999.90;;;12.00;99.90;;;;;;5154433;27;20049;-75
2022/09/01 04:53:15;;;;;;;1999.90;999.90;;;12.00;99.90;;;;;;5135501;27;20259;-75
2022/09/01 04:55:46;;;;;;;1999.90;999.90;;;12.10;99.90;;;;;;5154507;27;20444;-75
2022/09/01 04:58:18;;;;;;;1999.90;999.90;;;12.10;99.90;;;;;;5154238;27;20134;-75
2022/09/01 05:00:47;;;;;;;1999.90;999.90;;;12.70;99.90;;;;;;5154366;27;20167;-75
2022/09/01 05:03:13;;;;;;;1999.90;999.90;;;12.10;99.90;;;;;;5154006;27;20046;-75
2022/09/01 05:05:44;;;;;;;1999.90;999.90;;;12.10;99.90;;;;;;5135033;27;20106;-88
2022/09/01 05:08:13;;;;;;;1999.90;999.90;;;12.10;99.90;;;;;;5153972;27;20049;-76
2022/09/01 05:10:45;;;;;;;1999.90;999.90;;;12.10;99.90;;;;;;5153620;27;20082;-77
2022/09/01 05:13:16;;;;;;;1999.90;999.90;;;12.70;99.90;;;;;;5153695;27;20043;-75
2022/09/01 05:15:45;;;;;;;1999.90;999.90;;;12.10;99.90;;;;;;5153052;27;20483;-76
2022/09/01 05:18:26;;;;;;;1999.90;999.90;;;12.10;99.90;;;;;;5135717;27;20076;-75
2022/09/01 05:20:54;;;;;;;1999.90;999.90;;;12.20;99.90;;;;;;5154071;27;20047;-75
2022/09/01 05:23:20;;;;;;;1999.90;999.90;;;12.10;99.90;;;;;;5153651;27;20099;-78
2022/09/01 05:25:53;;;;;;;1999.90;999.90;;;12.20;99.90;;;;;;5117749;27;20514;-80
2022/09/01 05:28:24;;;;;;;1999.90;999.90;;;12.10;99.90;;;;;;5153303;27;20108;-75
2022/09/01 05:30:53;;;;;;;1999.90;999.90;;;13.10;99.90;;;;;;5153866;27;20045;-75
2022/09/01 05:33:20;;;;;;;1999.90;999.90;;;12.20;1.00;;;;;;5134940;27;20043;-76
2022/09/01 05:35:55;;;;;;;1999.90;999.90;;;12.20;1.00;;;;;;5153842;27;20380;-87
2022/09/01 05:38:21;;;;;;;1999.90;999.90;;;12.20;1.00;;;;;;5118282;27;20443;-90
2022/09/01 05:41:00;;;;;;;1999.90;999.90;;;12.30;1.00;;;;;;5154035;27;20042;-79
2022/09/01 05:43:27;;;;;;;1999.90;999.90;;;12.30;1.00;;;;;;5153445;27;20076;-75
2022/09/01 05:45:54;;;;;;;1999.90;999.90;;;12.30;1.00;;;;;;5154104;27;20100;-76
2022/09/01 05:48:22;;;;;;;1999.90;999.90;;;12.30;1.00;;;;;;5132726;27;20068;-76
2022/09/01 05:50:48;;;;;;;;;;;12.30;1.00;;;;;;5135214;27;20091;-76
2022/09/01 05:53:16;;;;;;;1999.90;999.90;;;12.40;1.00;;;;;;5153702;27;20038;-76
2022/09/01 05:55:47;;;;;;;1999.90;999.90;;;12.40;1.00;;;;;;5153656;27;20274;-76
2022/09/01 05:58:15;;;;;;;1999.90;999.90;;;12.40;1.00;;;;;;5152935;27;20437;-76
2022/09/01 06:00:42;;;;;;;;;;;12.40;1.00;;;;;;5118615;27;20047;-76
2022/09/01 06:03:09;;;;;;;1999.90;999.90;;;12.40;1.00;;;;;;5153724;27;19963;-75
2022/09/01 06:05:36;;;;;;;1999.90;999.90;;;12.40;1.00;;;;;;5153506;27;20046;-76
2022/09/01 06:08:04;;;;;;;1999.90;999.90;;;12.40;1.00;;;;;;5135098;27;20479;-76
2022/09/01 06:10:32;;;;;;;1999.90;999.90;;;12.50;1.00;;;;;;5153093;27;20514;-77
2022/09/01 06:13:01;;;;;;;;;;;12.60;1.00;;;;;;5153676;27;20046;-76
2022/09/01 06:15:29;;;;;;;1999.90;999.90;;;13.50;1.00;;;;;;5153596;27;20023;-76
2022/09/01 06:17:57;;;;;;;1999.90;999.90;;;12.70;1.00;;;;;;5135010;27;20042;-75
2022/09/01 06:20:23;;;;;;;1999.90;999.90;;;12.70;99.90;;;;;;5153626;27;20100;-76
2022/09/01 06:22:51;;;;;;;1999.90;999.90;;;12.70;99.90;;;;;;5153408;27;20047;-75
2022/09/01 06:25:20;;;;;;;1999.90;999.90;;;12.80;99.90;;;;;;5154310;27;20055;-76
2022/09/01 06:27:47;;;;;;;1999.90;999.90;;;12.80;99.90;;;;;;5156070;27;20093;-75
2022/09/01 06:30:19;;;;;;;1999.90;999.90;;;12.80;99.90;;;;;;5156972;27;20526;-76
2022/09/01 06:32:45;;;;;;;1999.90;999.90;;;12.90;1.00;;;;;;5157027;27;20117;-75
2022/09/01 06:35:14;;;;;;;1999.90;999.90;;;13.00;1.00;;;;;;5157068;27;20169;-75
2022/09/01 06:37:42;;;;;;;1999.90;999.90;;;13.10;1.00;;;;;;5156403;27;20046;-75
2022/09/01 06:40:17;;;;;;;1999.90;999.90;;;13.20;1.00;;;;;;5138303;27;20043;-79
2022/09/01 06:42:46;;;;;;;1999.90;999.90;;;13.40;1.00;;;;;;5156765;27;20075;-78
2022/09/01 06:45:16;;;;;;;1999.90;999.90;;;13.40;1.00;;;;;;5156678;27;20043;-76
2022/09/01 06:47:43;;;;;;;1999.90;999.90;;;13.50;1.00;;;;;;5154472;27;20074;-76
2022/09/01 06:50:13;;;;;;;1999.90;999.90;;;13.50;1.00;;;;;;5156886;27;20046;-76
2022/09/01 06:52:43;;;;;;;1999.90;999.90;;;13.50;1.00;;;;;;5156601;27;20057;-77
2022/09/01 06:55:13;;;;;;;1999.90;999.90;;;13.60;1.00;;;;;;5156709;27;20404;-78
2022/09/01 06:57:40;;;;;;;1999.90;999.90;;;13.70;1.00;;;;;;5155919;27;20037;-76
2022/09/01 07:00:19;;;;;;;1999.90;999.90;;;13.90;1.00;;;;;;5156575;27;20046;-76
2022/09/01 07:02:53;;;;;;;1999.90;999.90;;;13.90;1.00;;;;;;5120580;27;20163;-78
2022/09/01 07:05:20;;;;;;;1999.90;999.90;;;14.10;1.00;;;;;;5121174;27;20078;-76
2022/09/01 07:07:56;;;;;;;1999.90;999.90;;;14.20;1.00;;;;;;5137770;27;20081;-77
2022/09/01 07:10:24;;;;;;;1999.90;999.90;;;14.30;99.90;;;;;;5156625;27;20043;-76
2022/09/01 07:12:50;;;;;;;;;;;14.40;99.90;;;;;;5121282;27;20088;-76
2022/09/01 07:15:16;;;;;;;1999.90;999.80;;;14.50;99.90;;;;;;5156449;27;20051;-80
2022/09/01 07:17:48;;;;;;;1999.90;999.90;;;14.50;99.90;;;;;;5155474;27;20074;-77
2022/09/01 07:20:15;;;;;;;1999.90;961.22;;;14.70;99.90;;;;;;5156471;27;20122;-76
2022/09/01 07:22:41;;;;;;;1999.90;999.90;;;14.80;99.90;;;;;;5137552;27;20051;-76
2022/09/01 07:25:11;;;;;;;1999.90;999.90;;;14.80;99.90;;;;;;5120853;27;20038;-78
2022/09/01 07:27:38;;;;;;;1999.90;999.90;;;14.90;99.90;;;;;;5137217;27;20061;-76
2022/09/01 07:30:07;;;;;;;1999.90;843.35;;;15.00;99.90;;;;;;5136169;27;20061;-76
2022/09/01 07:32:33;;;;;;;1999.90;956.40;;;15.10;99.90;;;;;;5155471;27;20049;-80
2022/09/01 07:34:59;;;;;;;1999.90;999.90;;;16.80;99.90;;;;;;5156108;27;20042;-78
2022/09/01 07:37:26;;;;;;;1999.90;999.90;;;18.70;99.90;;;;;;5154855;27;20138;-77
2022/09/01 07:39:53;;;;;;;1768.25;652.90;;;20.60;99.90;;;;;;5154675;27;20507;-78
2022/09/01 07:42:19;;;;;;;1999.90;999.90;;;22.40;99.90;;;;;;5155190;27;20050;-77
2022/09/01 07:44:46;;;;;;;1999.90;999.90;;;23.90;49.10;;;;;;5135770;27;20118;-77
2022/09/01 07:47:14;;;;;;;1999.90;999.90;;;25.00;1.00;;;;;;5135175;27;20506;-83
2022/09/01 07:49:40;;;;;;;1999.90;999.90;;;26.00;1.00;;;;;;5154613;27;20096;-78
2022/09/01 07:52:06;;;;;;;1999.90;999.90;;;26.90;1.00;;;;;;5155659;27;20050;-82
2022/09/01 07:54:33;;;;;;;1999.90;999.90;;;27.40;1.00;;;;;;5155466;27;20047;-78
2022/09/01 07:57:00;;;;;;;1999.90;999.90;;;28.00;1.00;;;;;;5136989;27;20483;-78
2022/09/01 07:59:27;;;;;;;1999.90;999.90;;;28.70;1.00;;;;;;5155592;27;20042;-78
2022/09/01 08:01:52;;;;;;;1999.90;999.90;;;29.20;1.00;;;;;;5155236;27;20121;-78
2022/09/01 08:04:21;;;;;;;1999.90;999.90;;;29.80;1.00;;;;;;5154828;27;20043;-78
2022/09/01 08:06:47;;;;;;;1999.90;999.90;;;30.20;1.00;;;;;;5136908;27;20050;-79
2022/09/01 08:09:13;;;;;;;1999.90;999.90;;;30.50;1.00;;;;;;5155422;27;20388;-78
2022/09/01 08:11:39;;;;;;;1999.90;999.90;;;30.10;1.00;;;;;;5154818;27;20047;-77
2022/09/01 08:14:05;;;;;;;1999.90;999.90;;;30.80;1.00;;;;;;5119688;27;20483;-79
2022/09/01 08:16:31;;;;;;;1999.90;999.90;;;31.50;1.00;;;;;;5155175;27;20043;-78
2022/09/01 08:18:57;;;;;;;1999.90;999.90;;;32.00;1.00;;;;;;5154241;27;20082;-78
2022/09/01 08:21:23;;;;;;;1999.90;999.90;;;31.90;1.00;;;;;;5154972;27;20046;-78
2022/09/01 08:23:54;;;;;;;1999.90;999.90;;;31.80;99.90;;;;;;5136084;27;20487;-79
2022/09/01 08:26:23;;;;;;;1999.90;999.90;;;32.00;99.90;;;;;;5135484;27;20095;-79
2022/09/01 08:28:50;;;;;;;1999.90;999.90;;;32.00;99.90;;;;;;5155045;27;20379;-78
2022/09/01 08:31:18;;;;;;;1999.90;999.90;;;31.20;99.90;;;;;;5154358;27;20046;-78
2022/09/01 08:33:46;;;;;;;1999.90;999.90;;;31.60;99.90;;;;;;5154548;27;20051;-77
2022/09/01 08:36:13;;;;;;;1999.90;999.90;;;32.10;99.90;;;;;;5136276;27;20482;-76
2022/09/01 08:38:40;;;;;;;1999.90;999.90;;;32.50;99.90;;;;;;5136052;27;20181;-79
2022/09/01 08:41:16;;;;;;;1999.90;999.90;;;33.00;99.90;;;;;;5154384;27;20047;-77
2022/09/01 08:44:10;;;;;;;1999.90;999.90;;;32.50;99.90;;;;;;5154106;27;20272;-77
2022/09/01 08:46:41;;;;;;;1999.90;999.90;;;32.40;99.90;;;;;;5153264;27;20141;-77
2022/09/01 08:49:20;;;;;;;1999.90;999.90;;;32.50;99.90;;;;;;5152242;27;20439;-77
2022/09/01 08:52:22;;;;;;;1999.90;999.90;;;33.20;99.90;;;;;;5135655;27;20047;-78
2022/09/01 08:54:52;;;;;;;1999.90;999.90;;;33.90;99.90;;;;;;5096878;27;20055;-82
2022/09/01 08:57:32;;;;;;;1999.90;999.90;;;33.90;99.90;;;;;;5154516;27;20050;-77
2022/09/01 08:59:57;;;;;;;1999.90;999.90;;;34.10;99.90;;;;;;5135826;27;20050;-78
2022/09/01 09:02:42;;;;;;;1999.90;999.90;;;34.40;99.90;;;;;;5153850;27;20407;-77
2022/09/01 09:05:34;;;;;;;1999.90;999.90;;;35.00;99.90;;;;;;5154459;27;20058;-78
2022/09/01 09:08:02;;;;;;;1999.90;999.90;;;35.50;99.90;;;;;;5154079;27;20043;-78
2022/09/01 09:10:40;;;;;;;1999.90;999.90;;;35.20;99.90;;;;;;5153898;27;20064;-79
2022/09/01 09:13:16;;;;;;;1999.90;999.90;;;35.40;99.90;;;;;;5154192;27;20531;-77
2022/09/01 09:15:54;;;;;;;1999.90;999.90;;;35.90;99.90;;;;;;5135692;27;20487;-79
2022/09/01 09:18:35;;;;;;;1999.90;999.90;;;36.30;99.90;;;;;;5154180;27;20043;-77
2022/09/01 09:21:12;;;;;;;1999.90;999.90;;;36.30;99.90;;;;;;5153521;27;20302;-77
2022/09/01 09:23:43;;;;;;;1999.90;999.90;;;36.50;99.90;;;;;;5154075;27;20416;-78
2022/09/01 09:26:09;;;;;;;1999.90;999.90;;;35.70;99.90;;;;;;5153993;27;20046;-79
2022/09/01 09:28:34;;;;;;;1999.90;999.90;;;36.10;99.90;;;;;;5153283;27;20047;-78
2022/09/01 09:31:33;;;;;;;1999.90;999.90;;;36.40;99.90;;;;;;5153274;27;20047;-78
2022/09/01 09:34:00;;;;;;;1999.90;999.90;;;36.80;99.90;;;;;;5153616;27;20402;-78
2022/09/01 09:36:36;;;;;;;1999.90;999.90;;;36.70;99.90;;;;;;5154093;27;20046;-78
2022/09/01 09:39:12;;;;;;;1999.90;999.90;;;36.40;99.90;;;;;;5153417;27;20279;-77
2022/09/01 09:41:39;;;;;;;1999.90;999.90;;;36.20;99.90;;;;;;5153483;27;20089;-78
2022/09/01 09:44:24;;;;;;;1999.90;999.90;;;36.60;99.90;;;;;;5153304;27;20043;-78
2022/09/01 09:46:50;;;;;;;1999.90;999.90;;;37.10;99.90;;;;;;5152802;27;20552;-82
2022/09/01 09:49:25;;;;;;;1999.90;999.90;;;37.70;99.90;;;;;;5152454;27;20034;-81
2022/09/01 09:52:10;;;;;;;1999.90;999.90;;;37.30;99.90;;;;;;5135307;27;20062;-77
2022/09/01 09:54:57;;;;;;;1999.90;999.90;;;37.50;99.90;;;;;;5153012;27;20059;-78
2022/09/01 09:57:23;;;;;;;1999.90;999.90;;;37.80;99.90;;;;;;5153155;27;20070;-77
2022/09/01 09:59:54;;;;;;;1999.90;999.90;;;37.40;99.90;;;;;;5153029;27;20050;-78
2022/09/01 10:02:34;;;;;;;1999.90;999.90;;;37.10;99.90;;;;;;5157739;27;20130;-78
2022/09/01 10:05:19;;;;;;;1999.90;999.90;;;37.60;99.90;;;;;;5157173;27;20111;-78
2022/09/01 10:07:45;;;;;;;1999.90;999.90;;;37.80;99.90;;;;;;5157286;27;20503;-83
2022/09/01 10:10:39;;;;;;;1999.90;999.90;;;36.90;99.90;;;;;;5138390;27;20053;-78
2022/09/01 10:13:10;;;;;;;1999.90;999.90;;;35.30;99.90;;;;;;5156913;27;20130;-78
2022/09/01 10:15:37;;;;;;;1999.90;999.90;;;35.20;99.90;;;;;;5157725;27;20041;-78
2022/09/01 10:18:25;;;;;;;1999.90;999.90;;;35.70;99.90;;;;;;5138990;27;20507;-78
2022/09/01 10:21:36;;;;;;;1999.90;999.90;;;36.20;99.90;;;;;;5137905;27;20046;-78
2022/09/01 10:24:13;;;;;;;1999.90;999.90;;;36.70;99.90;;;;;;5143067;27;20051;-78
2022/09/01 10:26:43;;;;;;;1999.90;999.90;;;37.60;99.90;;;;;;5156754;27;20142;-78
2022/09/01 10:29:13;;;;;;;1999.90;999.90;;;38.50;99.90;;;;;;5157108;27;20034;-78
2022/09/01 10:31:41;;;;;;;1999.90;999.90;;;38.40;99.90;;;;;;5156926;27;20043;-78
2022/09/01 10:34:12;;;;;;;1999.90;999.90;;;38.50;99.90;;;;;;5157018;27;20055;-79
2022/09/01 10:36:42;;;;;;;1999.90;999.90;;;39.10;99.90;;;;;;5157364;27;20114;-79
2022/09/01 10:39:13;;;;;;;1999.90;999.90;;;38.50;99.90;;;;;;5156699;27;20605;-78
2022/09/01 10:41:43;;;;;;;1999.90;999.90;;;38.10;99.90;;;;;;5120943;27;20079;-80
2022/09/01 10:44:22;;;;;;;1999.90;999.90;;;37.30;99.90;;;;;;5156763;27;20043;-79
2022/09/01 10:46:49;;;;;;;1999.90;999.90;;;37.00;99.90;;;;;;5157161;27;20391;-79
2022/09/01 10:49:18;;;;;;;;;;;36.00;99.90;;;;;;5156106;27;20082;-79
2022/09/01 10:51:45;;;;;;;1999.90;999.90;;;36.20;99.90;;;;;;5138054;27;19929;-80
2022/09/01 10:54:37;;;;;;;1999.90;999.90;;;37.00;99.90;;;;;;5137975;27;20125;-80
2022/09/01 10:57:20;;;;;;;1999.90;999.90;;;37.80;99.90;;;;;;5098358;27;20085;-81
2022/09/01 10:59:46;;;;;;;1999.90;999.90;;;38.60;99.90;;;;;;5138554;27;20053;-79
2022/09/01 11:02:20;;;;;;;1999.90;999.90;;;39.60;99.90;;;;;;5137474;27;20042;-80
2022/09/01 11:04:46;;;;;;;1999.90;999.90;;;40.10;99.90;;;;;;5156735;27;20126;-79
2022/09/01 11:07:17;;;;;;;1999.90;999.90;;;39.90;99.90;;;;;;5155995;27;20082;-79
2022/09/01 11:09:49;;;;;;;1999.90;999.90;;;39.40;99.90;;;;;;5156563;27;20049;-81
2022/09/01 11:12:29;;;;;;;1999.90;999.90;;;39.70;99.90;;;;;;5154836;27;20053;-81
2022/09/01 11:14:58;;;;;;;1999.90;999.90;;;39.90;99.90;;;;;;5136687;27;20050;-80
2022/09/01 11:17:31;;;;;;;1999.90;999.90;;;40.20;99.90;;;;;;5156087;27;20051;-79
2022/09/01 11:20:08;;;;;;;1999.90;999.90;;;39.60;99.90;;;;;;5155803;27;20093;-80
2022/09/01 11:22:58;;;;;;;1999.90;999.90;;;39.10;99.90;;;;;;5155884;27;20086;-80
2022/09/01 11:25:32;;;;;;;1999.90;999.90;;;39.90;99.90;;;;;;5107086;27;20090;-78
2022/09/01 11:27:58;;;;;;;1999.90;999.90;;;39.30;99.90;;;;;;5155043;27;20065;-81
2022/09/01 11:30:30;;;;;;;1999.90;999.90;;;38.30;99.90;;;;;;5137179;27;20055;-80
2022/09/01 11:33:24;;;;;;;1999.90;999.90;;;37.70;99.90;;;;;;5155154;27;20047;-84
2022/09/01 11:36:03;;;;;;;1999.90;999.90;;;38.00;99.90;;;;;;5154914;27;20490;-78
2022/09/01 11:38:38;;;;;;;1999.90;999.90;;;38.40;99.90;;;;;;5137397;27;20051;-79
2022/09/01 11:41:03;;;;;;;1999.90;999.90;;;38.60;99.90;;;;;;5155270;27;20405;-80
2022/09/01 11:43:29;;;;;;;1999.90;999.90;;;38.40;99.90;;;;;;5154984;27;20129;-81
2022/09/01 11:46:07;;;;;;;1999.90;999.90;;;38.70;99.90;;;;;;5155303;27;20387;-82
2022/09/01 11:48:33;;;;;;;1999.90;999.90;;;39.20;99.90;;;;;;5153225;27;20335;-80
2022/09/01 11:51:02;;;;;;;1999.90;999.90;;;39.70;99.90;;;;;;5136651;27;20080;-82
2022/09/01 11:53:29;;;;;;;1999.90;999.90;;;39.80;99.90;;;;;;5155391;27;20284;-82
2022/09/01 11:56:10;;;;;;;1999.90;999.90;;;39.20;99.90;;;;;;5155487;27;20035;-78
2022/09/01 11:58:38;;;;;;;1999.90;999.90;;;38.60;99.90;;;;;;5155464;27;20539;-78
2022/09/01 12:01:42;;;;;;;1999.90;999.90;;;37.00;99.90;;;;;;5155445;27;20085;-82
2022/09/01 12:04:21;;;;;;;1999.90;999.90;;;34.80;99.90;;;;;;5050604;28;20048;-78
2022/09/01 12:07:02;;;;;;;1999.90;999.90;;;35.20;99.90;;;;;;5051066;28;20366;-79
2022/09/01 12:09:41;;;;;;;1999.90;999.90;;;36.00;99.90;;;;;;5120245;27;20051;-80
2022/09/01 12:12:38;;;;;;;1999.90;999.90;;;36.40;99.90;;;;;;5154946;27;20046;-81
2022/09/01 12:15:23;;;;;;;1999.90;999.90;;;35.90;99.90;;;;;;5136645;27;20065;-79
2022/09/01 12:17:49;;;;;;;1999.90;999.90;;;33.60;99.90;;;;;;5155206;27;20074;-79
2022/09/01 12:20:24;;;;;;;1999.90;999.90;;;32.40;99.90;;;;;;5154921;27;20379;-81
2022/09/01 12:22:50;;;;;;;1999.90;999.90;;;31.60;99.90;;;;;;5154570;27;20125;-79
2022/09/01 12:25:31;;;;;;;1999.90;999.90;;;31.30;99.90;;;;;;5154450;27;20039;-80
2022/09/01 12:28:07;;;;;;;1999.90;999.90;;;30.80;99.90;;;;;;5132807;27;20047;-80